Time;durP1;ratioP1;P1;durP2;ratioP2;P2;SDS_P1;SDS_P2;PMS_P1;PMS_P2;Temp;Humidity;BMP_temperature;BMP_pressure;BME280_temperature;BME280_humidity;BME280_pressure;Samples;Min_cycle;Max_cycle;Signal;HPM_P1;HPM_P2
2022/04/18 00:01:59;;;;;;;2.67;0.50;;;;;;;1.20;73.85;99674.38;1755129;80;21052;-51
2022/04/18 00:04:27;;;;;;;1.00;0.50;;;;;;;1.21;73.94;99661.55;1751444;80;21352;-51
2022/04/18 00:06:54;;;;;;;2.80;0.50;;;;;;;1.22;74.00;99662.43;1752524;80;21410;-51
2022/04/18 00:09:21;;;;;;;1.83;0.60;;;;;;;1.22;74.12;99663.31;1753029;80;21029;-51
2022/04/18 00:11:49;;;;;;;1.17;0.50;;;;;;;1.23;74.14;99663.74;1754607;80;21052;-51
2022/04/18 00:14:15;;;;;;;1.30;0.50;;;;;;;1.23;74.19;99656.23;1753082;80;22062;-51
2022/04/18 00:16:42;;;;;;;1.47;0.50;;;;;;;1.24;74.26;99660.20;1753006;80;21134;-51
2022/04/18 00:19:10;;;;;;;1.20;0.70;;;;;;;1.27;74.29;99653.55;1752991;80;21471;-51
2022/04/18 00:21:38;;;;;;;1.60;0.63;;;;;;;1.26;74.29;99650.45;1750658;80;21425;-51
2022/04/18 00:24:05;;;;;;;2.63;0.50;;;;;;;1.28;74.34;99647.31;1752483;80;21044;-51
2022/04/18 00:26:33;;;;;;;2.20;0.60;;;;;;;1.30;74.30;99644.65;1754657;80;21502;-51
2022/04/18 00:29:01;;;;;;;1.23;0.50;;;;;;;1.29;74.36;99642.45;1752911;80;20961;-51
2022/04/18 00:31:29;;;;;;;1.13;0.60;;;;;;;1.29;74.38;99634.48;1752722;80;21108;-51
2022/04/18 00:33:56;;;;;;;3.23;0.60;;;;;;;1.30;74.38;99631.39;1751678;80;21052;-51
2022/04/18 00:36:23;;;;;;;1.23;0.50;;;;;;;1.29;74.38;99628.30;1757542;79;21036;-51
2022/04/18 00:38:51;;;;;;;2.40;0.53;;;;;;;1.26;74.53;99631.02;1763196;79;21072;-51
2022/04/18 00:41:17;;;;;;;1.00;0.60;;;;;;;1.28;74.56;99630.53;1763479;79;21129;-51
2022/04/18 00:43:48;;;;;;;0.93;0.40;;;;;;;1.28;74.58;99630.08;1762444;79;21110;-51
2022/04/18 00:46:16;;;;;;;0.90;0.43;;;;;;;1.28;74.63;99627.87;1766007;79;21611;-51
2022/04/18 00:48:42;;;;;;;0.80;0.57;;;;;;;1.29;74.64;99630.95;1765746;79;20941;-51
2022/04/18 00:51:13;;;;;;;1.07;0.40;;;;;;;1.29;74.70;99625.21;1765863;79;20953;-51
2022/04/18 00:53:43;;;;;;;4.63;0.47;;;;;;;1.29;74.70;99625.21;1765860;79;21807;-51
2022/04/18 00:56:12;;;;;;;0.90;0.50;;;;;;;1.30;74.78;99626.09;1764791;79;21229;-51
2022/04/18 00:58:39;;;;;;;0.53;0.30;;;;;;;1.32;74.81;99620.33;1765507;79;20937;-51
2022/04/18 01:01:05;;;;;;;0.70;0.40;;;;;;;1.34;74.88;99621.19;1734129;79;21056;-51
2022/04/18 01:03:33;;;;;;;4.30;0.40;;;;;;;1.34;74.86;99619.41;1760047;79;21654;-51
2022/04/18 01:06:02;;;;;;;0.77;0.40;;;;;;;1.34;74.88;99617.21;1726401;80;21168;-51
2022/04/18 01:08:34;;;;;;;3.03;0.60;;;;;;;1.32;74.99;99611.92;1764094;79;21076;-51
2022/04/18 01:11:02;;;;;;;2.00;0.50;;;;;;;1.31;74.99;99614.14;1764507;79;20973;-51
2022/04/18 01:13:47;;;;;;;0.70;0.50;;;;;;;1.31;75.08;99607.52;1764802;79;21336;-51
2022/04/18 01:16:16;;;;;;;0.80;0.40;;;;;;;1.31;75.15;99609.28;1759800;79;21502;-51
2022/04/18 01:18:45;;;;;;;1.13;0.50;;;;;;;1.28;75.17;99604.89;1759472;79;21711;-51
2022/04/18 01:21:17;;;;;;;1.57;0.40;;;;;;;1.28;75.29;99597.37;1752257;79;21052;-51
2022/04/18 01:28:58;;;;;;;1.57;0.40;;;;;;;1.31;75.34;99597.35;1764642;79;21032;-51
2022/04/18 01:29:21;;;;;;;0.70;0.40;;;;;;;1.34;75.46;99580.08;1762606;79;21589;-50
2022/04/18 01:31:47;;;;;;;0.93;0.50;;;;;;;1.36;75.47;99580.95;1762663;79;21483;-50
2022/04/18 01:34:14;;;;;;;0.53;0.40;;;;;;;1.35;75.50;99577.42;1764357;79;21665;-50
2022/04/18 01:36:41;;;;;;;0.83;0.40;;;;;;;1.35;75.48;99569.46;1754401;79;21537;-50
2022/04/18 01:39:11;;;;;;;0.60;0.50;;;;;;;1.33;75.51;99570.38;1738469;80;21694;-51
2022/04/18 01:41:39;;;;;;;0.60;0.40;;;;;;;1.30;75.56;99571.28;1739135;81;21046;-51
2022/04/18 01:44:07;;;;;;;0.97;0.40;;;;;;;1.28;75.65;99565.56;1737769;81;21567;-51
2022/04/18 01:46:35;;;;;;;1.73;0.50;;;;;;;1.26;75.71;99566.06;1741302;81;20887;-50
2022/04/18 01:49:01;;;;;;;2.60;0.40;;;;;;;1.22;75.84;99563.88;1742321;80;21339;-51
2022/04/18 01:51:28;;;;;;;2.10;0.40;;;;;;;1.22;75.96;99561.67;1740520;81;20961;-50
2022/04/18 01:53:54;;;;;;;1.67;0.40;;;;;;;1.23;76.04;99564.31;1738596;81;21388;-50
2022/04/18 01:56:21;;;;;;;0.90;0.40;;;;;;;1.27;76.13;99563.84;1739220;80;21105;-51
2022/04/18 01:58:49;;;;;;;0.83;0.50;;;;;;;1.30;76.19;99562.45;1740713;80;21376;-51
2022/04/18 02:01:15;;;;;;;1.37;0.60;;;;;;;1.33;76.14;99563.30;1704942;81;21421;-49
2022/04/18 02:03:42;;;;;;;1.63;0.50;;;;;;;1.33;76.16;99554.02;1741658;80;20993;-48
2022/04/18 02:06:10;;;;;;;1.77;0.40;;;;;;;1.32;76.12;99552.70;1738952;80;21709;-49
2022/04/18 02:08:36;;;;;;;0.73;0.40;;;;;;;1.30;76.21;99557.14;1739512;80;21116;-47
2022/04/18 02:11:05;;;;;;;0.50;0.40;;;;;;;1.28;76.22;99550.98;1739620;80;21001;-48
2022/04/18 02:13:35;;;;;;;0.50;0.40;;;;;;;1.29;76.30;99553.61;1737973;81;20992;-51
2022/04/18 02:16:04;;;;;;;0.50;0.33;;;;;;;1.29;76.37;99546.98;1738281;80;21377;-49
2022/04/18 02:18:32;;;;;;;2.60;0.50;;;;;;;1.33;76.43;99554.02;1742817;80;21408;-49
2022/04/18 02:20:58;;;;;;;0.60;0.40;;;;;;;1.36;76.44;99548.64;1738974;81;21213;-48
2022/04/18 02:23:24;;;;;;;0.70;0.50;;;;;;;1.40;76.46;99549.48;1739441;81;20985;-49
2022/04/18 02:25:51;;;;;;;1.07;0.50;;;;;;;1.43;76.40;99547.69;1739207;80;22197;-49
2022/04/18 02:28:20;;;;;;;0.60;0.40;;;;;;;1.43;76.30;99541.05;1743213;80;21403;-48
2022/04/18 02:30:48;;;;;;;1.47;0.50;;;;;;;1.43;76.30;99542.83;1738591;80;21698;-51
2022/04/18 02:33:15;;;;;;;0.60;0.40;;;;;;;1.44;76.32;99548.11;1703833;81;22336;-50
2022/04/18 02:35:41;;;;;;;0.70;0.40;;;;;;;1.43;76.28;99543.70;1737272;81;21093;-51
2022/04/18 02:38:08;;;;;;;1.23;0.40;;;;;;;1.40;76.30;99541.09;1741215;80;21105;-52
2022/04/18 02:40:36;;;;;;;2.03;0.40;;;;;;;1.37;76.35;99538.47;1741686;80;21082;-49
2022/04/18 02:43:04;;;;;;;0.80;0.37;;;;;;;1.38;76.38;99542.00;1739850;80;21375;-48
2022/04/18 02:45:32;;;;;;;1.07;0.50;;;;;;;1.38;76.45;99539.34;1756805;80;21826;-48
2022/04/18 02:48:12;;;;;;;0.80;0.50;;;;;;;1.38;76.49;99540.22;1730468;81;20950;-50
2022/04/18 02:50:41;;;;;;;0.53;0.50;;;;;;;1.41;76.57;99535.33;1763429;80;20992;-50
2022/04/18 02:53:08;;;;;;;2.10;0.60;;;;;;;1.43;76.61;99534.88;1756430;80;21032;-51
2022/04/18 02:55:40;;;;;;;1.00;0.50;;;;;;;1.48;76.58;99533.02;1735093;81;20918;-50
2022/04/18 02:58:07;;;;;;;1.13;0.60;;;;;;;1.49;76.44;99534.32;1757327;80;21609;-49
2022/04/18 03:00:36;;;;;;;1.00;0.50;;;;;;;1.49;76.43;99528.14;1741363;81;20977;-51
2022/04/18 03:03:03;;;;;;;2.57;0.53;;;;;;;1.48;76.38;99524.61;1742073;81;21086;-50
2022/04/18 03:05:31;;;;;;;1.20;0.50;;;;;;;1.47;76.42;99521.52;1740868;80;21539;-48
2022/04/18 03:07:59;;;;;;;0.90;0.60;;;;;;;1.45;76.37;99524.64;1741909;80;21074;-51
2022/04/18 03:13:14;;;;;;;0.50;0.50;;;;;;;1.40;76.48;99525.17;1752394;80;21135;-48
2022/04/18 03:15:42;;;;;;;0.87;0.50;;;;;;;1.38;76.46;99521.66;1728332;81;21107;-49
2022/04/18 03:18:09;;;;;;;1.90;0.50;;;;;;;1.37;76.57;99524.33;1721979;82;21477;-49
2022/04/18 03:20:37;;;;;;;1.33;0.60;;;;;;;1.39;76.62;99522.54;1757515;80;21371;-50
2022/04/18 03:23:04;;;;;;;0.83;0.50;;;;;;;1.41;76.62;99522.08;1753798;80;21727;-51
2022/04/18 03:25:33;;;;;;;0.90;0.50;;;;;;;1.40;76.55;99515.89;1758751;80;21015;-48
2022/04/18 03:28:01;;;;;;;3.07;0.50;;;;;;;1.38;76.54;99516.36;1759859;80;21111;-51
2022/04/18 03:30:27;;;;;;;1.10;0.60;;;;;;;1.36;76.58;99514.65;1757743;80;21105;-51
2022/04/18 03:32:55;;;;;;;2.53;0.50;;;;;;;1.36;76.63;99512.00;1755074;80;21085;-52
2022/04/18 03:35:23;;;;;;;0.90;0.40;;;;;;;1.37;76.66;99500.46;1732496;81;21662;-47
2022/04/18 03:40:34;;;;;;;0.70;0.33;;;;;;;1.33;76.64;99508.05;1756478;80;21005;-47
2022/04/18 03:43:00;;;;;;;0.50;0.40;;;;;;;1.33;76.74;99505.41;1755736;80;21131;-49
2022/04/18 03:45:27;;;;;;;0.77;0.50;;;;;;;1.36;76.77;99503.56;1754586;80;21821;-50
2022/04/18 03:47:54;;;;;;;1.40;0.47;;;;;;;1.37;76.69;99507.09;1785765;78;21692;-49
2022/04/18 03:50:21;;;;;;;1.30;0.50;;;;;;;1.36;76.67;99496.09;1784053;78;21056;-50
2022/04/18 03:52:49;;;;;;;0.67;0.40;;;;;;;1.34;76.71;99496.10;1786186;78;21029;-49
2022/04/18 03:55:27;;;;;;;0.43;0.37;;;;;;;1.32;76.70;99498.34;1749230;80;21656;-50
2022/04/18 03:57:55;;;;;;;0.67;0.40;;;;;;;1.32;76.85;99489.94;1751028;79;20969;-51
2022/04/18 04:00:23;;;;;;;0.60;0.50;;;;;;;1.34;76.90;99485.50;1768861;79;21818;-51
2022/04/18 04:02:49;;;;;;;1.50;0.50;;;;;;;1.36;76.89;99485.00;1765954;79;21445;-51
2022/04/18 04:05:17;;;;;;;0.73;0.50;;;;;;;1.37;76.89;99481.89;1763716;79;21580;-51
2022/04/18 04:07:47;;;;;;;2.23;0.40;;;;;;;1.37;76.83;99481.45;1766244;79;21028;-51
2022/04/18 04:10:18;;;;;;;1.03;0.50;;;;;;;1.38;76.96;99472.59;1767600;79;21053;-50
2022/04/18 04:12:47;;;;;;;0.60;0.40;;;;;;;1.42;76.93;99478.74;1765609;79;21612;-50
2022/04/18 04:15:33;;;;;;;0.60;0.50;;;;;;;1.41;76.99;99471.23;1765175;79;21027;-51
2022/04/18 04:18:02;;;;;;;0.60;0.40;;;;;;;1.43;76.97;99462.81;1765676;79;21378;-50
2022/04/18 04:20:31;;;;;;;1.10;0.50;;;;;;;1.47;76.94;99457.86;1765774;79;21044;-51
2022/04/18 04:22:59;;;;;;;1.90;0.40;;;;;;;1.52;76.89;99455.16;1765555;79;21482;-50
2022/04/18 04:25:37;;;;;;;2.10;0.50;;;;;;;1.56;76.91;99447.55;1760319;79;21150;-51
2022/04/18 04:28:05;;;;;;;1.70;0.77;;;;;;;1.58;76.72;99446.20;1765709;79;21079;-51
2022/04/18 04:30:32;;;;;;;1.23;0.50;;;;;;;1.59;76.67;99440.88;1739869;81;20985;-51
2022/04/18 04:33:01;;;;;;;0.77;0.50;;;;;;;1.59;76.68;99439.55;1768830;79;21523;-51
2022/04/18 04:35:29;;;;;;;0.83;0.40;;;;;;;1.60;76.70;99436.00;1740770;79;21351;-51
2022/04/18 04:38:04;;;;;;;1.15;0.70;;;;;;;1.63;76.67;99439.03;1756469;79;21341;-51
2022/04/18 04:40:37;;;;;;;1.33;0.50;;;;;;;1.65;76.56;99441.22;1740581;81;20940;-51
2022/04/18 04:43:05;;;;;;;0.77;0.50;;;;;;;1.66;76.55;99435.89;1742094;80;21517;-50
2022/04/18 04:45:35;;;;;;;1.13;0.50;;;;;;;1.67;76.52;99434.98;1706698;80;21330;-50
2022/04/18 04:48:15;;;;;;;1.03;0.40;;;;;;;1.69;76.51;99434.52;1742601;81;20970;-51
2022/04/18 04:50:45;;;;;;;0.67;0.43;;;;;;;1.73;76.45;99434.88;1744361;80;22259;-50
2022/04/18 04:53:11;;;;;;;0.67;0.50;;;;;;;1.77;76.39;99438.36;1704970;81;21002;-50
2022/04/18 04:55:39;;;;;;;0.60;0.50;;;;;;;1.80;76.32;99435.63;1716883;81;21007;-51
2022/04/18 04:58:06;;;;;;;0.70;0.50;;;;;;;1.82;76.29;99430.73;1743910;80;20966;-51
2022/04/18 05:00:42;;;;;;;0.53;0.40;;;;;;;1.84;76.26;99426.73;1726032;80;20918;-50
2022/04/18 05:03:13;;;;;;;0.40;0.40;;;;;;;1.88;76.22;99427.08;1743766;80;21490;-50
2022/04/18 05:05:41;;;;;;;1.27;0.50;;;;;;;1.91;76.10;99436.32;1743832;80;20949;-50
2022/04/18 05:08:09;;;;;;;1.20;0.60;;;;;;;1.92;76.01;99433.22;1758802;80;20877;-49
2022/04/18 05:10:36;;;;;;;0.60;0.47;;;;;;;1.90;75.84;99435.45;1727677;81;20958;-50
2022/04/18 05:13:05;;;;;;;0.70;0.40;;;;;;;1.88;75.75;99433.71;1734521;81;20971;-50
2022/04/18 05:15:33;;;;;;;1.57;0.40;;;;;;;1.85;75.84;99441.75;1735357;81;21266;-50
2022/04/18 05:18:11;;;;;;;0.53;0.40;;;;;;;1.87;75.99;99436.81;1694345;83;21112;-50
2022/04/18 05:20:39;;;;;;;2.50;0.70;;;;;;;1.92;75.86;99424.80;1754525;80;21114;-51
2022/04/18 05:23:06;;;;;;;1.00;0.50;;;;;;;1.97;75.85;99425.58;1754361;80;21389;-51
2022/04/18 05:25:33;;;;;;;0.63;0.40;;;;;;;2.04;75.82;99421.05;1756204;80;21743;-50
2022/04/18 05:28:00;;;;;;;0.70;0.50;;;;;;;2.08;75.69;99426.26;1729671;81;21136;-50
2022/04/18 05:30:33;;;;;;;1.53;0.50;;;;;;;2.11;75.49;99424.02;1753994;80;21050;-50
2022/04/18 05:32:59;;;;;;;3.60;0.40;;;;;;;2.11;75.39;99419.58;1724888;81;21059;-50
2022/04/18 05:35:26;;;;;;;0.80;0.40;;;;;;;2.10;75.44;99425.79;1758405;80;22268;-51
2022/04/18 05:37:52;;;;;;;0.77;0.40;;;;;;;2.15;75.41;99422.58;1729444;80;21076;-50
2022/04/18 05:40:24;;;;;;;0.70;0.70;;;;;;;2.21;75.30;99419.79;1780862;78;21081;-49
2022/04/18 05:42:52;;;;;;;1.43;0.40;;;;;;;2.23;74.96;99417.11;1783473;78;20888;-50
2022/04/18 05:45:18;;;;;;;1.43;0.60;;;;;;;2.28;75.04;99410.83;1780648;78;21050;-50
2022/04/18 05:47:46;;;;;;;1.47;0.53;;;;;;;2.33;74.80;99409.84;1785688;78;20990;-49
2022/04/18 05:52:32;;;;;;;1.17;0.60;;;;;;;2.43;74.21;99406.97;1846382;75;26426;-49
2022/04/18 05:55:02;;;;;;;1.03;0.60;;;;;;;2.34;74.17;99405.83;1807364;77;20966;-49
2022/04/18 05:57:30;;;;;;;1.40;0.60;;;;;;;2.34;74.32;99404.95;1803313;77;21177;-49
2022/04/18 05:59:59;;;;;;;1.50;0.80;;;;;;;2.38;74.30;99411.97;1790511;79;21025;-49
2022/04/18 06:02:27;;;;;;;0.70;0.50;;;;;;;2.41;74.25;99409.22;1788549;79;21331;-49
2022/04/18 06:04:56;;;;;;;1.37;0.60;;;;;;;2.47;74.31;99410.41;1760431;79;21021;-49
2022/04/18 06:07:22;;;;;;;1.33;0.60;;;;;;;2.52;73.84;99404.57;1791091;79;21515;-49
2022/04/18 06:09:53;;;;;;;1.00;0.67;;;;;;;2.51;73.62;99411.66;1787547;79;21510;-49
2022/04/18 06:12:21;;;;;;;1.07;0.50;;;;;;;2.49;73.70;99405.95;1759145;79;21080;-48
2022/04/18 06:14:48;;;;;;;0.87;0.50;;;;;;;2.52;73.71;99407.23;1761332;79;20997;-49
2022/04/18 06:17:16;;;;;;;0.90;0.70;;;;;;;2.55;73.39;99408.50;1756958;79;21088;-49
2022/04/18 06:19:45;;;;;;;2.40;0.60;;;;;;;2.56;73.42;99403.12;1788149;78;21064;-48
2022/04/18 06:22:12;;;;;;;1.13;0.70;;;;;;;2.58;73.26;99404.43;1789096;79;22408;-49
2022/04/18 06:24:41;;;;;;;0.97;0.63;;;;;;;2.60;73.09;99408.81;1789483;79;21037;-49
2022/04/18 06:27:09;;;;;;;0.80;0.63;;;;;;;2.57;73.02;99403.55;1796232;78;20906;-48
2022/04/18 06:29:37;;;;;;;1.50;0.67;;;;;;;2.58;72.88;99403.09;1790979;79;20902;-48
2022/04/18 06:32:05;;;;;;;2.07;0.60;;;;;;;2.60;72.66;99410.59;1764618;79;20891;-49
2022/04/18 06:34:32;;;;;;;0.90;0.53;;;;;;;2.60;72.58;99410.59;1789524;79;21051;-50
2022/04/18 06:37:09;;;;;;;1.03;0.70;;;;;;;2.59;72.20;99407.51;1788595;78;20925;-49
2022/04/18 06:39:41;;;;;;;1.10;0.50;;;;;;;2.56;72.19;99407.11;1788549;77;21068;-50
2022/04/18 06:42:15;;;;;;;1.32;0.70;;;;;;;2.57;72.15;99417.29;1788056;78;21100;-50
2022/04/18 06:44:43;;;;;;;0.77;0.60;;;;;;;2.59;72.02;99407.06;1792437;79;20898;-50
2022/04/18 06:47:09;;;;;;;1.53;0.63;;;;;;;2.65;71.85;99409.58;1788470;79;21613;-50
2022/04/18 06:49:53;;;;;;;0.80;0.57;;;;;;;2.71;71.60;99405.05;1787042;79;20910;-49
2022/04/18 06:52:23;;;;;;;2.20;0.60;;;;;;;2.73;71.38;99400.09;1795888;78;21302;-50
2022/04/18 06:55:02;;;;;;;0.73;0.60;;;;;;;2.74;71.24;99403.63;1744772;79;20925;-50
2022/04/18 06:57:28;;;;;;;0.90;0.60;;;;;;;2.75;71.07;99406.72;1804255;78;20925;-50
2022/04/18 06:59:56;;;;;;;0.93;0.50;;;;;;;2.81;71.00;99406.57;1802125;78;21128;-50
2022/04/18 07:02:24;;;;;;;1.07;0.57;;;;;;;2.86;70.78;99400.27;1809643;78;20885;-50
2022/04/18 07:04:53;;;;;;;0.93;0.60;;;;;;;2.92;70.52;99396.58;1799674;78;21431;-51
2022/04/18 07:07:20;;;;;;;0.70;0.70;;;;;;;2.93;69.90;99395.67;1802567;77;21528;-50
2022/04/18 07:09:48;;;;;;;0.80;0.70;;;;;;;2.93;69.74;99389.90;1806892;78;21758;-50
2022/04/18 07:12:22;;;;;;;1.47;0.60;;;;;;;2.98;69.70;99395.09;1804413;78;21081;-50
2022/04/18 07:14:51;;;;;;;1.13;0.67;;;;;;;3.03;69.68;99395.88;1808343;78;20992;-50
2022/04/18 07:17:19;;;;;;;2.10;0.60;;;;;;;3.09;69.60;99405.03;1805945;78;20884;-51
2022/04/18 07:19:45;;;;;;;2.07;0.60;;;;;;;3.11;69.42;99404.55;1807058;78;20936;-50
2022/04/18 07:22:13;;;;;;;1.30;0.70;;;;;;;3.14;69.22;99400.50;1807367;78;20854;-50
2022/04/18 07:24:40;;;;;;;2.97;0.67;;;;;;;3.16;68.92;99401.77;1807968;78;21582;-50
2022/04/18 07:27:06;;;;;;;1.03;0.60;;;;;;;3.17;68.54;99399.08;1806099;78;20965;-50
2022/04/18 07:29:35;;;;;;;0.87;0.60;;;;;;;3.14;68.33;99395.19;1748320;81;21525;-50
2022/04/18 07:32:01;;;;;;;0.70;0.50;;;;;;;3.13;68.26;99396.09;1747903;80;20937;-50
2022/04/18 07:34:29;;;;;;;0.80;0.60;;;;;;;3.16;68.39;99389.80;1762023;80;20981;-50
2022/04/18 07:36:56;;;;;;;0.80;0.60;;;;;;;3.19;68.21;99387.08;1744642;80;21326;-50
2022/04/18 07:39:23;;;;;;;1.03;0.70;;;;;;;3.22;67.95;99379.03;1759797;80;21351;-50
2022/04/18 07:41:51;;;;;;;0.73;0.60;;;;;;;3.25;67.74;99386.92;1761532;78;20886;-50
2022/04/18 07:44:20;;;;;;;1.03;0.70;;;;;;;3.29;67.83;99383.28;1761696;80;21518;-50
2022/04/18 07:46:48;;;;;;;1.40;0.60;;;;;;;3.35;67.62;99381.80;1760743;80;21395;-50
2022/04/18 07:49:19;;;;;;;0.90;0.60;;;;;;;3.37;67.37;99382.19;1761624;80;21110;-50
2022/04/18 07:51:49;;;;;;;0.87;0.60;;;;;;;3.39;67.21;99380.83;1766257;80;20960;-50
2022/04/18 07:54:30;;;;;;;1.43;0.60;;;;;;;3.36;66.83;99375.11;1753791;79;21362;-50
2022/04/18 07:56:57;;;;;;;1.30;0.53;;;;;;;3.34;66.50;99381.38;1767164;80;20913;-49
2022/04/18 07:59:26;;;;;;;0.60;0.50;;;;;;;3.30;65.71;99380.59;1765184;80;20921;-51
2022/04/18 08:01:53;;;;;;;0.50;0.50;;;;;;;3.24;65.93;99379.39;1767581;80;21732;-51
2022/04/18 08:04:21;;;;;;;1.53;0.60;;;;;;;3.22;65.78;99378.58;1765346;80;20952;-50
2022/04/18 08:06:48;;;;;;;1.23;0.60;;;;;;;3.19;65.64;99378.64;1766776;80;20917;-50
2022/04/18 08:09:18;;;;;;;1.37;0.70;;;;;;;3.16;65.80;99380.49;1766216;80;20906;-50
2022/04/18 08:11:44;;;;;;;1.13;0.63;;;;;;;3.13;66.03;99377.47;1767038;80;20886;-50
2022/04/18 08:14:13;;;;;;;0.90;0.53;;;;;;;3.15;66.21;99378.77;1769267;80;21720;-50
2022/04/18 08:16:47;;;;;;;0.85;0.60;;;;;;;3.17;66.32;99373.81;1758876;80;21044;-49
2022/04/18 08:19:15;;;;;;;1.43;0.60;;;;;;;3.19;66.13;99368.01;1762239;80;21016;-50
2022/04/18 08:21:43;;;;;;;2.30;0.60;;;;;;;3.23;66.29;99370.99;1764407;80;21364;-50
2022/04/18 08:24:10;;;;;;;0.93;0.50;;;;;;;3.31;65.92;99359.73;1766170;80;21080;-50
2022/04/18 08:26:36;;;;;;;1.03;0.50;;;;;;;3.40;65.85;99359.96;1764502;80;21698;-50
2022/04/18 08:29:07;;;;;;;2.30;0.70;;;;;;;3.51;65.82;99359.66;1770459;80;21455;-50
2022/04/18 08:31:36;;;;;;;1.10;0.50;;;;;;;3.61;65.66;99355.39;1766328;80;20886;-51
2022/04/18 08:34:04;;;;;;;0.80;0.53;;;;;;;3.75;65.57;99355.01;1766009;80;20945;-50
2022/04/18 08:36:33;;;;;;;1.07;0.57;;;;;;;3.87;64.82;99348.49;1765242;80;20929;-50
2022/04/18 08:39:01;;;;;;;0.83;0.60;;;;;;;3.95;64.92;99342.49;1764735;80;21110;-51
2022/04/18 08:41:51;;;;;;;1.10;0.70;;;;;;;4.04;64.22;99349.77;1766473;80;21498;-50
2022/04/18 08:44:22;;;;;;;1.30;0.60;;;;;;;4.14;63.87;99338.40;1767924;80;21370;-51
2022/04/18 08:46:50;;;;;;;1.50;0.70;;;;;;;4.20;63.84;99336.88;1737057;80;20917;-50
2022/04/18 08:54:51;;;;;;;1.03;0.50;;;;;;;4.33;62.72;99333.41;1758074;80;21415;-51
2022/04/18 08:57:17;;;;;;;2.43;0.50;;;;;;;4.30;62.15;99330.37;1765343;80;20988;-50
2022/04/18 08:59:44;;;;;;;0.87;0.60;;;;;;;4.30;61.89;99328.16;1740694;80;21270;-50
2022/04/18 09:02:11;;;;;;;1.33;0.60;;;;;;;4.29;62.02;99333.08;1764556;80;21363;-51
2022/04/18 09:04:48;;;;;;;0.90;0.50;;;;;;;4.24;61.36;99330.56;1754480;80;21534;-50
2022/04/18 09:07:16;;;;;;;1.30;0.50;;;;;;;4.16;61.76;99326.80;1764542;80;21199;-51
2022/04/18 09:09:48;;;;;;;1.80;0.60;;;;;;;4.17;61.93;99328.52;1767203;80;21040;-50
2022/04/18 09:12:20;;;;;;;1.87;0.60;;;;;;;4.22;61.94;99321.73;1763753;80;21056;-51
2022/04/18 09:14:50;;;;;;;0.60;0.50;;;;;;;4.26;62.13;99326.48;1766025;80;20882;-50
2022/04/18 09:17:31;;;;;;;0.70;0.50;;;;;;;4.34;61.97;99321.35;1765345;80;21470;-51
2022/04/18 09:20:13;;;;;;;0.60;0.50;;;;;;;4.37;61.72;99316.40;1755781;80;21399;-50
2022/04/18 09:22:46;;;;;;;2.60;0.50;;;;;;;4.39;61.50;99315.90;1763123;80;21451;-50
2022/04/18 09:25:22;;;;;;;0.97;0.50;;;;;;;4.40;61.09;99316.32;1766009;80;21040;-51
2022/04/18 09:27:54;;;;;;;0.63;0.50;;;;;;;4.38;61.17;99322.14;1768897;80;20961;-51
2022/04/18 09:30:22;;;;;;;0.73;0.60;;;;;;;4.36;61.23;99315.52;1766787;80;21060;-52
2022/04/18 09:33:03;;;;;;;0.70;0.60;;;;;;;4.37;61.22;99311.95;1762909;80;21518;-51
2022/04/18 09:35:33;;;;;;;0.80;0.60;;;;;;;4.39;61.46;99311.91;1745152;80;21067;-52
2022/04/18 09:38:08;;;;;;;0.73;0.50;;;;;;;4.43;61.58;99312.20;1767293;80;20957;-51
2022/04/18 09:40:53;;;;;;;0.87;0.60;;;;;;;4.46;61.46;99309.00;1767394;80;21016;-51
2022/04/18 09:43:23;;;;;;;0.70;0.60;;;;;;;4.49;60.85;99311.59;1763875;80;20997;-52
2022/04/18 09:45:52;;;;;;;0.80;0.60;;;;;;;4.47;60.75;99313.41;1768303;80;21464;-50
2022/04/18 09:48:21;;;;;;;0.60;0.50;;;;;;;4.42;60.96;99312.66;1718428;80;20961;-51
2022/04/18 09:51:01;;;;;;;3.13;0.50;;;;;;;4.37;61.10;99309.73;1767175;80;20925;-51
2022/04/18 09:53:32;;;;;;;0.93;0.50;;;;;;;4.32;61.00;99311.68;1758924;80;20933;-51
2022/04/18 09:55:58;;;;;;;0.70;0.50;;;;;;;4.27;61.02;99308.26;1760289;80;21140;-51
2022/04/18 09:58:25;;;;;;;1.60;0.60;;;;;;;4.23;60.91;99310.16;1755537;79;22414;-51
2022/04/18 10:00:52;;;;;;;0.77;0.50;;;;;;;4.20;61.03;99302.25;1761091;80;20961;-49
2022/04/18 10:03:20;;;;;;;1.57;0.50;;;;;;;4.17;60.99;99307.66;1757416;80;20910;-51
2022/04/18 10:05:48;;;;;;;0.70;0.60;;;;;;;4.14;61.06;99306.44;1761301;80;21293;-51
2022/04/18 10:08:15;;;;;;;2.00;0.50;;;;;;;4.15;60.98;99310.39;1760103;80;21071;-50
2022/04/18 10:10:41;;;;;;;1.80;0.60;;;;;;;4.15;61.03;99305.52;1759060;80;20922;-51
2022/04/18 10:13:10;;;;;;;0.90;0.53;;;;;;;4.16;61.16;99302.81;1763935;80;22198;-50
2022/04/18 10:15:38;;;;;;;1.30;0.60;;;;;;;4.21;61.21;99308.45;1758723;80;21092;-51
2022/04/18 10:18:08;;;;;;;0.60;0.50;;;;;;;4.26;61.13;99309.17;1759166;80;21057;-51
2022/04/18 10:21:04;;;;;;;3.33;0.60;;;;;;;4.30;61.23;99306.39;1761404;80;21558;-51
2022/04/18 10:23:53;;;;;;;1.00;0.57;;;;;;;4.35;60.53;99300.45;1760547;80;20945;-51
2022/04/18 10:26:43;;;;;;;0.90;0.70;;;;;;;4.34;60.54;99298.70;1759791;80;21450;-51
2022/04/18 10:29:31;;;;;;;2.97;0.60;;;;;;;4.34;60.54;99297.38;1759449;80;21040;-51
2022/04/18 10:32:00;;;;;;;0.60;0.50;;;;;;;4.34;60.68;99297.38;1758948;80;21065;-51
2022/04/18 10:34:31;;;;;;;1.70;0.60;;;;;;;4.38;60.81;99302.16;1762262;80;21423;-51
2022/04/18 10:36:55;;;;;;;0.80;0.50;;;;;;;4.43;60.90;99300.21;1761398;80;20898;-51
2022/04/18 10:39:22;;;;;;;0.93;0.87;;;;;;;4.46;60.87;99302.34;1761099;80;20953;-51
2022/04/18 10:41:54;;;;;;;1.67;0.50;;;;;;;4.52;61.10;99303.47;1760800;80;20969;-52
2022/04/18 10:44:18;;;;;;;0.97;0.63;;;;;;;4.60;61.00;99297.03;1759159;80;20957;-51
2022/04/18 10:46:56;;;;;;;0.83;0.50;;;;;;;4.70;61.13;99297.16;1758783;80;21833;-51
2022/04/18 10:49:24;;;;;;;0.80;0.50;;;;;;;4.79;60.67;99303.53;1761151;80;20982;-52
2022/04/18 10:51:53;;;;;;;0.70;0.50;;;;;;;4.84;59.92;99297.61;1761997;80;20894;-52
2022/04/18 10:54:30;;;;;;;1.00;0.50;;;;;;;4.84;59.71;99298.94;1759977;80;21302;-52
2022/04/18 10:57:01;;;;;;;0.87;0.50;;;;;;;4.83;59.58;99291.86;1762341;80;21439;-51
2022/04/18 10:59:30;;;;;;;0.87;0.67;;;;;;;4.85;59.89;99297.99;1764350;80;21706;-51
2022/04/18 11:02:01;;;;;;;1.70;0.57;;;;;;;4.86;59.61;99295.73;1765853;80;21307;-51
2022/04/18 11:04:41;;;;;;;3.40;0.83;;;;;;;4.86;59.56;99297.07;1759602;80;21284;-51
2022/04/18 11:07:09;;;;;;;1.50;0.67;;;;;;;4.81;58.83;99294.56;1761234;80;20917;-52
2022/04/18 11:09:44;;;;;;;2.33;0.60;;;;;;;4.74;59.20;99292.16;1761848;80;20973;-51
2022/04/18 11:12:15;;;;;;;1.93;0.60;;;;;;;4.71;59.39;99294.45;1746284;79;20922;-51
2022/04/18 11:14:53;;;;;;;1.33;0.60;;;;;;;4.68;59.73;99294.53;1762176;80;21294;-51
2022/04/18 11:17:37;;;;;;;1.73;0.50;;;;;;;4.68;60.12;99287.87;1761902;80;21334;-51
2022/04/18 11:20:27;;;;;;;1.57;0.50;;;;;;;4.67;60.12;99291.48;1760423;80;20953;-51
2022/04/18 11:23:19;;;;;;;0.70;0.50;;;;;;;4.70;60.28;99291.83;1765076;80;21447;-51
2022/04/18 11:25:57;;;;;;;0.80;0.50;;;;;;;4.67;60.03;99294.15;1757571;80;21878;-51
2022/04/18 11:28:26;;;;;;;0.83;0.50;;;;;;;4.59;60.15;99288.64;1762386;80;20958;-51
2022/04/18 11:30:52;;;;;;;1.00;0.50;;;;;;;4.54;60.27;99294.11;1760883;80;20894;-51
2022/04/18 11:33:19;;;;;;;0.70;0.60;;;;;;;4.51;60.25;99284.41;1761531;80;20952;-52
2022/04/18 11:35:47;;;;;;;0.50;0.40;;;;;;;4.52;60.28;99293.27;1763888;80;21550;-51
2022/04/18 11:38:14;;;;;;;0.53;0.40;;;;;;;4.52;60.31;99283.48;1763158;80;21717;-51
2022/04/18 11:40:41;;;;;;;0.60;0.30;;;;;;;4.55;59.97;99285.19;1759735;80;21542;-52
2022/04/18 11:43:14;;;;;;;0.60;0.40;;;;;;;4.56;59.62;99280.28;1759982;80;21585;-51
2022/04/18 11:45:42;;;;;;;0.43;0.40;;;;;;;4.56;59.50;99281.61;1761737;80;21360;-51
2022/04/18 11:48:13;;;;;;;0.57;0.43;;;;;;;4.56;59.42;99282.94;1760010;80;21021;-51
2022/04/18 11:50:43;;;;;;;1.07;0.40;;;;;;;4.61;59.77;99278.78;1762182;80;21424;-51
2022/04/18 11:53:12;;;;;;;0.30;0.20;;;;;;;4.69;59.91;99284.28;1761469;80;21105;-52
2022/04/18 11:55:43;;;;;;;0.43;0.30;;;;;;;4.79;59.70;99280.41;1762002;80;21439;-51
2022/04/18 11:58:10;;;;;;;0.70;0.40;;;;;;;4.89;59.32;99284.98;1769689;80;20952;-52
2022/04/18 12:08:53;;;;;;;4.30;0.50;;;;;;;5.15;58.40;99267.66;1769980;80;20886;-51
2022/04/18 12:11:20;;;;;;;0.70;0.50;;;;;;;5.22;58.28;99263.84;1769010;80;21036;-52
2022/04/18 12:13:47;;;;;;;0.60;0.40;;;;;;;5.29;58.05;99260.49;1767679;80;21573;-52
2022/04/18 12:16:17;;;;;;;0.63;0.40;;;;;;;5.37;58.05;99259.77;1764750;80;21507;-52
2022/04/18 12:18:45;;;;;;;0.57;0.43;;;;;;;5.44;57.47;99253.77;1767619;80;21541;-52